createdAt,value
2018-09-05T00:01:54.633Z,98172.66
2018-09-05T00:04:23.122Z,98167.84
2018-09-05T00:06:51.622Z,98166.49
2018-09-05T00:09:20.124Z,98171.66
2018-09-05T00:11:48.621Z,98165.17
2018-09-05T00:14:17.144Z,98172.72
2018-09-05T00:16:45.646Z,98167.64
2018-09-05T00:19:14.152Z,98170.06
2018-09-05T00:21:42.665Z,98172.22
2018-09-05T00:24:11.129Z,98161.91
2018-09-05T00:26:39.622Z,98156.80
2018-09-05T00:29:08.152Z,98152.50
2018-09-05T00:31:36.666Z,98158.42
2018-09-05T00:34:05.154Z,98157.66
2018-09-05T00:36:33.653Z,98162.23
2018-09-05T00:39:02.129Z,98157.91
2018-09-05T00:41:30.624Z,98163.03
2018-09-05T00:43:59.093Z,98159.81
2018-09-05T00:46:27.585Z,98160.38
2018-09-05T00:48:56.059Z,98165.20
2018-09-05T00:51:24.570Z,98169.81
2018-09-05T00:53:53.097Z,98169.27
2018-09-05T00:57:45.953Z,98170.62
2018-09-05T01:00:14.447Z,98170.33
2018-09-05T01:02:42.948Z,98167.64
2018-09-05T01:05:11.446Z,98164.41
2018-09-05T01:07:39.950Z,98168.14
2018-09-05T01:10:08.435Z,98163.59
2018-09-05T01:12:36.989Z,98160.08
2018-09-05T01:15:05.534Z,98157.66
2018-09-05T01:17:34.047Z,98158.19
2018-09-05T01:20:02.546Z,98156.31
2018-09-05T01:22:31.129Z,98156.04
2018-09-05T01:24:59.613Z,98154.70
2018-09-05T01:27:28.144Z,98155.51
2018-09-05T01:29:56.626Z,98148.77
2018-09-05T01:32:25.117Z,98145.00
2018-09-05T01:34:53.574Z,98140.14
2018-09-05T01:37:22.074Z,98147.16
2018-09-05T01:39:50.601Z,98145.25
2018-09-05T01:42:19.153Z,98142.28
2018-09-05T01:44:47.622Z,98149.03
2018-09-05T01:47:16.135Z,98141.75
2018-09-05T01:49:44.598Z,98143.35
2018-09-05T01:52:13.110Z,98145.25
2018-09-05T01:54:41.573Z,98142.80
2018-09-05T01:57:10.071Z,98145.25
2018-09-05T01:59:38.569Z,98147.41
2018-09-05T02:02:07.105Z,98153.07
2018-09-05T02:04:35.570Z,98146.08
2018-09-05T02:07:04.084Z,98153.37
2018-09-05T02:09:32.545Z,98150.93
2018-09-05T02:12:01.050Z,98147.95
2018-09-05T02:14:29.518Z,98146.05
2018-09-05T02:16:58.038Z,98142.82
2018-09-05T02:19:26.525Z,98142.02
2018-09-05T02:21:55.021Z,98140.40
2018-09-05T02:24:23.492Z,98144.70
2018-09-05T02:26:52.026Z,98142.81
2018-09-05T02:29:20.573Z,98138.48
2018-09-05T02:31:49.061Z,98139.84
2018-09-05T02:34:17.554Z,98139.83
2018-09-05T02:36:46.054Z,98142.80
2018-09-05T02:39:14.509Z,98149.00
2018-09-05T02:41:42.965Z,98148.47
2018-09-05T02:44:16.807Z,98143.08
2018-09-05T02:46:45.305Z,98142.56
2018-09-05T02:49:13.803Z,98146.88
2018-09-05T02:51:42.262Z,98143.11
2018-09-05T02:54:10.775Z,98141.76
2018-09-05T02:56:39.257Z,98148.77
2018-09-05T02:59:07.782Z,98150.13
2018-09-05T03:01:36.237Z,98147.95
2018-09-05T03:04:04.746Z,98143.66
2018-09-05T03:06:33.233Z,98158.77
2018-09-05T03:09:01.741Z,98150.13
2018-09-05T03:11:30.211Z,98148.75
2018-09-05T03:13:58.706Z,98148.23
2018-09-05T03:16:27.164Z,98154.69
2018-09-05T03:18:55.653Z,98148.75
2018-09-05T03:21:24.150Z,98159.54
2018-09-05T03:23:52.646Z,98155.77
2018-09-05T03:26:21.109Z,98155.23
2018-09-05T03:28:49.613Z,98157.64
2018-09-05T03:31:18.106Z,98161.70
2018-09-05T03:33:46.637Z,98160.65
2018-09-05T03:36:15.075Z,98155.23
2018-09-05T03:38:43.574Z,98157.39
2018-09-05T03:41:12.036Z,98163.59
2018-09-05T03:43:40.542Z,98163.03
2018-09-05T03:46:09.012Z,98159.27
2018-09-05T03:48:37.496Z,98160.08
2018-09-05T03:51:05.976Z,98163.05
2018-09-05T03:53:34.466Z,98158.44
2018-09-05T03:56:02.925Z,98170.06
2018-09-05T03:58:31.425Z,98169.77
2018-09-05T04:00:59.904Z,98166.77
2018-09-05T04:03:28.462Z,98169.16
2018-09-05T04:05:56.966Z,98169.63
2018-09-05T04:09:49.843Z,98169.07
2018-09-05T04:12:18.378Z,98167.97
2018-09-05T04:14:46.810Z,98174.41
2018-09-05T04:17:15.258Z,98174.70
2018-09-05T04:19:43.734Z,98168.23
2018-09-05T04:22:12.228Z,98172.87
2018-09-05T04:24:40.759Z,98173.74
2018-09-05T04:27:09.257Z,98176.39
2018-09-05T04:29:37.792Z,98173.42
2018-09-05T04:32:06.265Z,98179.69
2018-09-05T04:34:34.809Z,98179.90
2018-09-05T04:37:03.272Z,98179.67
2018-09-05T04:39:31.764Z,98176.39
2018-09-05T04:42:00.249Z,98179.06
2018-09-05T04:44:28.750Z,98175.80
2018-09-05T04:46:57.252Z,98183.92
2018-09-05T04:49:25.785Z,98188.25
2018-09-05T04:51:54.238Z,98183.66
2018-09-05T04:54:22.720Z,98180.13
2018-09-05T04:56:51.173Z,98183.62
2018-09-05T04:59:19.726Z,98189.59
2018-09-05T05:01:48.185Z,98184.02
2018-09-05T05:04:16.677Z,98186.37
2018-09-05T05:06:45.163Z,98192.56
2018-09-05T05:09:13.669Z,98193.11
2018-09-05T05:11:42.309Z,98198.46
2018-09-05T05:14:11.217Z,98199.86
2018-09-05T05:16:39.709Z,98202.55
2018-09-05T05:19:08.209Z,98200.17
2018-09-05T05:21:36.673Z,98200.95
2018-09-05T05:24:05.214Z,98197.76
2018-09-05T05:26:33.665Z,98202.87
2018-09-05T05:29:02.152Z,98199.64
2018-09-05T05:31:30.670Z,98205.59
2018-09-05T05:33:59.148Z,98207.50
2018-09-05T05:36:27.645Z,98204.82
2018-09-05T05:38:56.096Z,98205.91
2018-09-05T05:41:24.578Z,98202.67
2018-09-05T05:43:53.098Z,98205.41
2018-09-05T05:46:21.662Z,98209.69
2018-09-05T05:48:50.160Z,98207.53
2018-09-05T05:51:18.658Z,98207.80
2018-09-05T05:53:47.133Z,98209.45
2018-09-05T05:56:15.641Z,98213.77
2018-09-05T05:58:44.128Z,98210.02
2018-09-05T06:01:12.673Z,98214.88
2018-09-05T06:03:41.185Z,98215.75
2018-09-05T06:06:09.846Z,98216.49
2018-09-05T06:08:38.172Z,98220.54
2018-09-05T06:11:06.873Z,98229.20
2018-09-05T06:13:35.464Z,98227.56
2018-09-05T06:16:04.017Z,98222.71
2018-09-05T06:18:32.489Z,98227.58
2018-09-05T06:21:01.827Z,98232.43
2018-09-05T06:23:30.258Z,98233.77
2018-09-05T06:25:58.741Z,98231.88
2018-09-05T06:28:27.242Z,98228.11
2018-09-05T06:30:55.820Z,98230.27
2018-09-05T06:33:24.236Z,98228.93
2018-09-05T06:35:52.941Z,98225.16
2018-09-05T06:38:21.453Z,98228.41
2018-09-05T06:40:50.018Z,98230.27
2018-09-05T06:43:18.492Z,98233.23
2018-09-05T06:45:46.979Z,98237.53
2018-09-05T06:48:15.430Z,98241.85
2018-09-05T06:50:43.921Z,98249.95
2018-09-05T06:53:12.396Z,98255.87
2018-09-05T06:55:40.889Z,98257.77
2018-09-05T06:58:09.441Z,98254.27
2018-09-05T07:00:37.962Z,98260.52
2018-09-05T07:03:06.730Z,98261.83
2018-09-05T07:05:35.268Z,98264.80
2018-09-05T07:08:03.746Z,98263.70
2018-09-05T07:10:32.225Z,98261.54
2018-09-05T07:13:00.709Z,98262.11
2018-09-05T07:15:29.180Z,98261.83
2018-09-05T07:17:57.677Z,98272.37
2018-09-05T07:20:26.138Z,98270.52
2018-09-05T07:23:00.197Z,98270.81
2018-09-05T07:25:28.844Z,98265.41
2018-09-05T07:27:57.357Z,98276.75
2018-09-05T07:30:25.922Z,98272.44
2018-09-05T07:32:54.357Z,98274.31
2018-09-05T07:35:22.819Z,98271.81
2018-09-05T07:37:51.297Z,98274.23
2018-09-05T07:40:19.821Z,98271.83
2018-09-05T07:42:48.298Z,98275.29
2018-09-05T07:45:16.831Z,98276.84
2018-09-05T07:47:45.335Z,98276.33
2018-09-05T07:50:13.781Z,98273.58
2018-09-05T07:52:42.281Z,98280.02
2018-09-05T07:55:10.772Z,98275.30
2018-09-05T07:57:39.270Z,98276.69
2018-09-05T08:00:07.781Z,98282.91
2018-09-05T08:02:36.305Z,98275.58
2018-09-05T08:05:04.881Z,98276.97
2018-09-05T08:07:33.378Z,98279.39
2018-09-05T08:10:02.090Z,98282.72
2018-09-05T08:12:30.599Z,98282.48
2018-09-05T08:14:59.092Z,98282.77
2018-09-05T08:17:27.603Z,98290.12
2018-09-05T08:19:56.270Z,98288.02
2018-09-05T08:22:24.778Z,98303.20
2018-09-05T08:24:53.275Z,98299.41
2018-09-05T08:27:22.762Z,98301.59
2018-09-05T08:29:51.991Z,98303.45
2018-09-05T08:32:20.698Z,98306.39
2018-09-05T08:34:49.196Z,98305.31
2018-09-05T08:37:18.439Z,98302.08
2018-09-05T08:39:46.937Z,98300.96
2018-09-05T08:42:15.547Z,98303.88
2018-09-05T08:44:44.114Z,98306.59
2018-09-05T08:47:12.534Z,98306.88
2018-09-05T08:49:40.981Z,98304.26
2018-09-05T08:52:18.856Z,98306.15
2018-09-05T08:54:47.357Z,98305.08
2018-09-05T08:57:15.869Z,98308.03
2018-09-05T08:59:45.521Z,98301.86
2018-09-05T09:02:14.018Z,98301.57
2018-09-05T09:04:42.662Z,98296.95
2018-09-05T09:07:11.265Z,98305.06
2018-09-05T09:11:04.182Z,98299.63
2018-09-05T09:13:32.691Z,98295.72
2018-09-05T09:16:01.168Z,98297.20
2018-09-05T09:18:29.677Z,98293.86
2018-09-05T09:20:58.229Z,98288.90
2018-09-05T09:23:27.206Z,98292.39
2018-09-05T09:25:56.021Z,98290.95
2018-09-05T09:28:37.512Z,98292.17
2018-09-05T09:31:06.651Z,98295.36
2018-09-05T09:33:35.197Z,98295.95
2018-09-05T09:36:09.840Z,98290.00
2018-09-05T09:38:38.510Z,98286.81
2018-09-05T09:41:06.997Z,98288.41
2018-09-05T09:43:35.528Z,98286.11
2018-09-05T09:46:03.991Z,98277.36
2018-09-05T09:50:01.593Z,98277.63
2018-09-05T09:52:30.090Z,98270.45
2018-09-05T09:54:58.637Z,98269.75
2018-09-05T09:57:27.107Z,98263.91
2018-09-05T09:59:55.619Z,98268.79
2018-09-05T10:02:29.310Z,98263.73
2018-09-05T10:05:02.946Z,98259.79
2018-09-05T10:07:36.785Z,98255.73
2018-09-05T10:10:10.677Z,98248.05
2018-09-05T10:12:44.465Z,98252.48
2018-09-05T10:15:13.717Z,98253.02
2018-09-05T10:17:42.166Z,98249.02
2018-09-05T10:20:10.689Z,98248.39
2018-09-05T10:22:39.197Z,98250.22
2018-09-05T10:25:07.737Z,98257.63
2018-09-05T10:27:36.201Z,98252.19
2018-09-05T10:30:04.736Z,98255.41
2018-09-05T10:32:33.193Z,98252.80
2018-09-05T10:35:01.686Z,98253.16
2018-09-05T10:37:30.207Z,98247.68
2018-09-05T10:39:58.712Z,98244.19
2018-09-05T10:42:27.169Z,98243.19
2018-09-05T10:44:55.629Z,98235.97
2018-09-05T10:47:24.061Z,98238.17
2018-09-05T10:49:52.557Z,98238.02
2018-09-05T10:52:21.005Z,98237.10
2018-09-05T10:54:49.497Z,98232.80
2018-09-05T10:57:17.961Z,98230.89
2018-09-05T10:59:46.465Z,98230.81
2018-09-05T11:02:14.941Z,98226.89
2018-09-05T11:04:43.435Z,98221.13
2018-09-05T11:07:11.917Z,98214.70
2018-09-05T11:09:40.423Z,98219.95
2018-09-05T11:12:08.888Z,98218.23
2018-09-05T11:14:37.390Z,98216.67
2018-09-05T11:17:05.854Z,98211.63
2018-09-05T11:19:34.339Z,98209.82
2018-09-05T11:22:03.344Z,98213.78
2018-09-05T11:24:33.367Z,98213.41
2018-09-05T11:27:01.910Z,98215.77
2018-09-05T11:29:30.409Z,98215.91
2018-09-05T11:31:58.909Z,98212.27
2018-09-05T11:34:27.397Z,98206.18
2018-09-05T11:36:55.888Z,98204.53
2018-09-05T11:39:24.374Z,98209.21
2018-09-05T11:41:52.820Z,98211.14
2018-09-05T11:44:21.316Z,98208.05
2018-09-05T11:46:49.778Z,98203.39
2018-09-05T11:49:18.264Z,98206.30
2018-09-05T11:51:46.705Z,98206.97
2018-09-05T11:54:15.165Z,98195.95
2018-09-05T11:56:43.657Z,98197.72
2018-09-05T11:59:12.105Z,98193.45
2018-09-05T12:01:40.598Z,98194.75
2018-09-05T12:04:09.108Z,98184.42
2018-09-05T12:06:37.626Z,98182.55
2018-09-05T12:09:09.029Z,98185.64
2018-09-05T12:11:37.565Z,98181.59
2018-09-05T12:14:06.109Z,98176.97
2018-09-05T12:16:36.277Z,98171.87
2018-09-05T12:19:05.281Z,98168.45
2018-09-05T12:21:33.789Z,98167.14
2018-09-05T12:24:02.277Z,98161.98
2018-09-05T12:26:30.773Z,98160.17
2018-09-05T12:28:59.290Z,98167.13
2018-09-05T12:31:27.821Z,98160.51
2018-09-05T12:33:56.288Z,98156.83
2018-09-05T12:36:24.838Z,98149.33
2018-09-05T12:38:53.321Z,98153.47
2018-09-05T12:41:21.801Z,98153.13
2018-09-05T12:43:50.266Z,98149.83
2018-09-05T12:46:18.785Z,98152.62
2018-09-05T12:48:47.261Z,98144.13
2018-09-05T12:51:15.832Z,98146.17
2018-09-05T12:53:44.277Z,98142.19
2018-09-05T12:56:12.796Z,98143.32
2018-09-05T12:58:41.251Z,98137.52
2018-09-05T13:01:09.973Z,98130.39
2018-09-05T13:03:38.558Z,98138.21
2018-09-05T13:06:07.158Z,98134.75
2018-09-05T13:08:35.638Z,98129.30
2018-09-05T13:11:04.137Z,98128.20
2018-09-05T13:13:32.713Z,98128.84
2018-09-05T13:16:01.210Z,98124.55
2018-09-05T13:18:29.736Z,98122.17
2018-09-05T13:20:58.239Z,98111.20
2018-09-05T13:23:26.753Z,98110.45
2018-09-05T13:25:55.290Z,98112.73
2018-09-05T13:28:24.030Z,98117.23
2018-09-05T13:30:52.520Z,98109.97
2018-09-05T13:33:21.025Z,98111.56
2018-09-05T13:35:49.598Z,98105.98
2018-09-05T13:38:18.181Z,98109.72
2018-09-05T13:40:46.633Z,98110.20
2018-09-05T13:43:15.174Z,98100.17
2018-09-05T13:45:43.654Z,98097.94
2018-09-05T13:48:12.165Z,98092.58
2018-09-05T13:50:40.681Z,98098.20
2018-09-05T13:53:09.177Z,98090.70
2018-09-05T13:55:37.677Z,98087.96
2018-09-05T13:58:06.667Z,98095.00
2018-09-05T14:00:35.209Z,98086.20
2018-09-05T14:03:03.713Z,98090.84
2018-09-05T14:05:32.192Z,98074.47
2018-09-05T14:08:00.702Z,98080.77
2018-09-05T14:10:29.185Z,98079.23
2018-09-05T14:12:57.682Z,98074.09
2018-09-05T14:15:26.167Z,98075.31
2018-09-05T14:17:54.664Z,98075.24
2018-09-05T14:20:23.228Z,98065.75
2018-09-05T14:22:51.747Z,98068.23
2018-09-05T14:25:20.211Z,98066.05
2018-09-05T14:27:48.733Z,98069.11
2018-09-05T14:30:17.249Z,98063.77
2018-09-05T14:32:45.774Z,98057.76
2018-09-05T14:35:14.349Z,98052.81
2018-09-05T14:37:42.852Z,98057.32
2018-09-05T14:40:11.431Z,98058.86
2018-09-05T14:42:39.880Z,98056.06
2018-09-05T14:45:08.409Z,98051.09
2018-09-05T14:47:36.910Z,98045.77
2018-09-05T14:50:05.605Z,98046.94
2018-09-05T14:52:34.137Z,98044.59
2018-09-05T14:55:02.623Z,98047.78
2018-09-05T14:57:31.141Z,98044.14
2018-09-05T14:59:59.653Z,98047.34
2018-09-05T15:02:28.182Z,98049.52
2018-09-05T15:04:56.686Z,98043.77
2018-09-05T15:07:28.237Z,98043.02
2018-09-05T15:09:56.783Z,98043.45
2018-09-05T15:12:25.263Z,98048.10
2018-09-05T15:14:53.785Z,98043.54
2018-09-05T15:17:22.263Z,98045.55
2018-09-05T15:19:50.759Z,98035.61
2018-09-05T15:22:19.265Z,98034.23
2018-09-05T15:24:47.761Z,98032.00
2018-09-05T15:27:16.289Z,98033.59
2018-09-05T15:29:44.886Z,98031.83
2018-09-05T15:32:13.438Z,98034.84
2018-09-05T15:34:41.997Z,98024.50
2018-09-05T15:37:10.600Z,98026.00
2018-09-05T15:39:39.158Z,98026.53
2018-09-05T15:42:07.762Z,98022.27
2018-09-05T15:44:36.342Z,98023.55
2018-09-05T15:47:04.935Z,98012.79
2018-09-05T15:49:33.545Z,98015.52
2018-09-05T15:52:02.083Z,98014.70
2018-09-05T15:54:30.693Z,98014.72
2018-09-05T15:56:59.258Z,98005.95
2018-09-05T15:59:27.751Z,98003.03
2018-09-05T16:01:56.294Z,98003.03
2018-09-05T16:04:24.916Z,98001.08
2018-09-05T16:06:53.422Z,98009.09
2018-09-05T16:09:21.984Z,98000.71
2018-09-05T16:11:50.491Z,98002.56
2018-09-05T16:14:19.026Z,98004.14
2018-09-05T16:16:47.537Z,98001.56
2018-09-05T16:19:16.078Z,98004.37
2018-09-05T16:21:44.584Z,97999.11
2018-09-05T16:24:13.118Z,98003.94
2018-09-05T16:28:06.114Z,97995.67
2018-09-05T16:30:34.620Z,97996.20
2018-09-05T16:33:03.137Z,97996.79
2018-09-05T16:35:31.741Z,97991.30
2018-09-05T16:38:00.177Z,97989.27
2018-09-05T16:40:28.860Z,97994.97
2018-09-05T16:42:57.333Z,97995.11
2018-09-05T16:45:25.885Z,97992.82
2018-09-05T16:47:54.427Z,97989.71
2018-09-05T16:50:23.267Z,97982.43
2018-09-05T16:52:51.836Z,97985.84
2018-09-05T16:55:20.377Z,97983.98
2018-09-05T16:57:48.895Z,97982.41
2018-09-05T17:00:17.415Z,97986.67
2018-09-05T17:02:46.020Z,97981.39
2018-09-05T17:05:14.725Z,97982.45
2018-09-05T17:07:43.242Z,97979.70
2018-09-05T17:10:11.791Z,97986.98
2018-09-05T17:12:40.344Z,97983.52
2018-09-05T17:15:09.298Z,97983.20
2018-09-05T17:17:37.766Z,97987.02
2018-09-05T17:20:06.547Z,97985.81
2018-09-05T17:22:35.254Z,97975.95
2018-09-05T17:25:04.378Z,97981.96
2018-09-05T17:27:33.662Z,97981.67
2018-09-05T17:30:02.178Z,97974.71
2018-09-05T17:32:30.671Z,97980.41
2018-09-05T17:34:59.181Z,97976.04
2018-09-05T17:37:27.631Z,97976.88
2018-09-05T17:39:56.125Z,97978.43
2018-09-05T17:42:24.632Z,97969.72
2018-09-05T17:44:53.145Z,97968.69
2018-09-05T17:47:21.609Z,97975.30
2018-09-05T17:49:50.086Z,97976.42
2018-09-05T17:52:18.543Z,97972.79
2018-09-05T17:54:47.037Z,97967.74
2018-09-05T17:57:15.507Z,97973.52
2018-09-05T17:59:44.026Z,97971.87
2018-09-05T18:02:12.488Z,97976.87
2018-09-05T18:04:40.985Z,97982.01
2018-09-05T18:07:09.475Z,97978.92
2018-09-05T18:09:37.981Z,97978.52
2018-09-05T18:12:06.661Z,97978.50
2018-09-05T18:14:35.272Z,97977.67
2018-09-05T18:17:03.743Z,97985.04
2018-09-05T18:19:32.265Z,97988.17
2018-09-05T18:22:00.749Z,97978.25
2018-09-05T18:24:29.291Z,97981.89
2018-09-05T18:26:57.768Z,97976.39
2018-09-05T18:29:26.237Z,97987.65
2018-09-05T18:31:55.618Z,97985.61
2018-09-05T18:34:24.095Z,97977.20
2018-09-05T18:36:52.631Z,97983.45
2018-09-05T18:39:21.104Z,97988.37
2018-09-05T18:41:49.625Z,97988.45
2018-09-05T18:44:18.108Z,97985.81
2018-09-05T18:46:46.639Z,97987.23
2018-09-05T18:49:15.166Z,97987.80
2018-09-05T18:51:43.666Z,97989.49
2018-09-05T18:54:12.142Z,97988.50
2018-09-05T18:56:40.642Z,97983.97
2018-09-05T18:59:09.162Z,97982.61
2018-09-05T19:01:37.693Z,97982.16
2018-09-05T19:04:06.334Z,97979.30
2018-09-05T19:06:34.861Z,97974.80
2018-09-05T19:09:03.442Z,97977.80
2018-09-05T19:11:31.991Z,97980.11
2018-09-05T19:14:00.527Z,97976.15
2018-09-05T19:16:28.980Z,97974.75
2018-09-05T19:18:57.429Z,97972.90
2018-09-05T19:21:25.929Z,97975.08
2018-09-05T19:23:54.373Z,97978.42
2018-09-05T19:26:22.852Z,97981.09
2018-09-05T19:28:51.301Z,97981.19
2018-09-05T19:31:19.840Z,97985.30
2018-09-05T19:33:48.314Z,97983.13
2018-09-05T19:36:16.828Z,97981.59
2018-09-05T19:38:45.382Z,97981.95
2018-09-05T19:41:13.894Z,97985.23
2018-09-05T19:43:42.409Z,97985.56
2018-09-05T19:46:10.937Z,97982.67
2018-09-05T19:48:39.454Z,97976.20
2018-09-05T19:51:07.977Z,97981.66
2018-09-05T19:53:36.474Z,97982.47
2018-09-05T19:56:04.976Z,97981.13
2018-09-05T19:58:33.458Z,97978.94
2018-09-05T20:01:01.982Z,97984.11
2018-09-05T20:03:30.485Z,97984.97
2018-09-05T20:05:59.023Z,97987.69
2018-09-05T20:08:27.557Z,97985.31
2018-09-05T20:10:56.104Z,97993.98
2018-09-05T20:13:24.602Z,97992.39
2018-09-05T20:15:53.171Z,98001.64
2018-09-05T20:19:46.028Z,97996.55
2018-09-05T20:22:14.527Z,97999.03
2018-09-05T20:24:43.046Z,97998.50
2018-09-05T20:27:11.621Z,97995.54
2018-09-05T20:29:40.161Z,97999.84
2018-09-05T20:32:08.682Z,97993.66
2018-09-05T20:34:37.178Z,97995.32
2018-09-05T20:37:05.756Z,97998.67
2018-09-05T20:39:34.234Z,97996.78
2018-09-05T20:42:02.755Z,97996.48
2018-09-05T20:44:31.238Z,97998.91
2018-09-05T20:46:59.866Z,97999.16
2018-09-05T20:49:28.363Z,97993.73
2018-09-05T20:51:56.860Z,97999.73
2018-09-05T20:54:25.345Z,98002.74
2018-09-05T20:56:53.861Z,98010.55
2018-09-05T20:59:22.339Z,98011.67
2018-09-05T21:01:50.862Z,98015.46
2018-09-05T21:04:19.361Z,98015.70
2018-09-05T21:06:47.877Z,98020.28
2018-09-05T21:09:16.356Z,98016.53
2018-09-05T21:11:44.865Z,98013.83
2018-09-05T21:14:13.357Z,98012.48
2018-09-05T21:16:41.866Z,98011.13
2018-09-05T21:19:10.320Z,98012.23
2018-09-05T21:21:38.843Z,98009.81
2018-09-05T21:24:07.289Z,98007.39
2018-09-05T21:26:36.287Z,98004.42
2018-09-05T21:29:04.862Z,98002.52
2018-09-05T21:31:33.364Z,98009.01
2018-09-05T21:34:01.887Z,98004.42
2018-09-05T21:36:30.366Z,98004.15
2018-09-05T21:38:58.936Z,98003.08
2018-09-05T21:41:27.414Z,98002.00
2018-09-05T21:43:56.295Z,97994.72
2018-09-05T21:46:24.769Z,97998.25
2018-09-05T21:48:53.285Z,97994.22
2018-09-05T21:51:21.751Z,97988.28
2018-09-05T21:53:50.250Z,97990.16
2018-09-05T21:56:18.701Z,97990.97
2018-09-05T21:58:47.207Z,97998.25
2018-09-05T22:01:18.781Z,98000.13
2018-09-05T22:03:48.613Z,97994.77
2018-09-05T22:06:17.081Z,97997.98
2018-09-05T22:08:45.586Z,97992.33
2018-09-05T22:11:19.470Z,97993.95
2018-09-05T22:13:48.427Z,97998.79
2018-09-05T22:16:16.901Z,98004.20
2018-09-05T22:18:45.410Z,98000.16
2018-09-05T22:21:13.858Z,98001.50
2018-09-05T22:23:42.341Z,97992.89
2018-09-05T22:26:10.959Z,97991.52
2018-09-05T22:28:40.622Z,97992.33
2018-09-05T22:31:09.194Z,97994.50
2018-09-05T22:33:37.723Z,97997.15
2018-09-05T22:36:06.214Z,97991.76
2018-09-05T22:38:35.258Z,97983.67
2018-09-05T22:41:04.471Z,97985.28
2018-09-05T22:43:44.095Z,97983.66
2018-09-05T22:46:24.009Z,97983.93
2018-09-05T22:49:03.829Z,97986.88
2018-09-05T22:53:22.799Z,97980.42
2018-09-05T23:00:17.188Z,97979.86
2018-09-05T23:02:57.790Z,97977.64
2018-09-05T23:07:40.756Z,97967.72
2018-09-05T23:10:20.466Z,97970.92
2018-09-05T23:13:00.194Z,97965.02
2018-09-05T23:15:39.918Z,97961.27
2018-09-05T23:18:26.414Z,97967.98
2018-09-05T23:21:21.358Z,97963.96
2018-09-05T23:23:59.209Z,97957.48
2018-09-05T23:26:28.014Z,97963.43
2018-09-05T23:28:56.531Z,97959.11
2018-09-05T23:31:25.164Z,97955.08
2018-09-05T23:33:53.720Z,97952.11
2018-09-05T23:36:22.590Z,97945.09
2018-09-05T23:38:51.058Z,97954.78
2018-09-05T23:41:19.572Z,97951.30
2018-09-05T23:43:48.115Z,97954.80
2018-09-05T23:46:17.398Z,97947.23
2018-09-05T23:48:45.918Z,97950.19
2018-09-05T23:51:14.423Z,97950.98
2018-09-05T23:53:42.902Z,97952.06
2018-09-05T23:56:11.436Z,97939.14
2018-09-05T23:58:39.911Z,97944.78
